createdAt,value
2017-12-02T00:00:34.269Z,2.10
2017-12-02T00:03:09.126Z,2.20
2017-12-02T00:05:44.599Z,2.20
2017-12-02T00:08:18.173Z,2.10
2017-12-02T00:10:50.418Z,2.00
2017-12-02T00:13:19.951Z,2.00
2017-12-02T00:16:07.010Z,2.20
2017-12-02T00:18:41.912Z,2.20
2017-12-02T00:21:16.283Z,2.20
2017-12-02T00:23:46.955Z,2.10
2017-12-02T00:26:21.716Z,2.10
2017-12-02T00:28:54.966Z,2.10
2017-12-02T00:34:03.728Z,2.10
2017-12-02T00:36:37.304Z,2.00
2017-12-02T00:39:10.170Z,2.00
2017-12-02T00:41:46.382Z,2.00
2017-12-02T00:44:17.629Z,2.00
2017-12-02T00:46:49.925Z,2.00
2017-12-02T00:49:20.866Z,2.00
2017-12-02T00:51:53.778Z,2.10
2017-12-02T00:54:30.910Z,2.10
2017-12-02T00:57:00.220Z,2.10
2017-12-02T00:59:37.752Z,2.20
2017-12-02T01:02:11.410Z,2.20
2017-12-02T01:04:42.837Z,2.10
2017-12-02T01:07:18.388Z,2.10
2017-12-02T01:09:54.185Z,2.10
2017-12-02T01:12:29.095Z,2.20
2017-12-02T01:14:59.648Z,2.20
2017-12-02T01:17:33.639Z,2.20
2017-12-02T01:20:09.029Z,2.20
2017-12-02T01:22:40.389Z,2.20
2017-12-02T01:25:11.116Z,2.10
2017-12-02T01:27:45.297Z,2.10
2017-12-02T01:30:17.604Z,2.10
2017-12-02T01:32:48.858Z,2.20
2017-12-02T01:35:17.386Z,2.20
2017-12-02T01:37:51.361Z,2.30
2017-12-02T01:40:25.945Z,2.40
2017-12-02T01:42:57.125Z,2.50
2017-12-02T01:48:23.411Z,2.60
2017-12-02T01:51:14.245Z,2.50
2017-12-02T01:57:07.412Z,2.20
2017-12-02T02:02:30.704Z,2.30
2017-12-02T02:05:02.477Z,2.40
2017-12-02T02:07:32.519Z,2.40
2017-12-02T02:10:05.314Z,2.40
2017-12-02T02:12:41.803Z,2.40
2017-12-02T02:15:15.553Z,2.50
2017-12-02T02:17:47.687Z,2.50
2017-12-02T02:20:20.346Z,2.60
2017-12-02T02:23:03.316Z,2.70
2017-12-02T02:25:39.266Z,2.60
2017-12-02T02:28:12.135Z,2.40
2017-12-02T02:30:43.088Z,2.40
2017-12-02T02:33:15.038Z,2.40
2017-12-02T02:35:46.195Z,2.40
2017-12-02T02:38:19.228Z,2.50
2017-12-02T02:40:48.965Z,2.50
2017-12-02T02:43:21.195Z,2.40
2017-12-02T02:45:57.879Z,2.30
2017-12-02T02:48:34.166Z,2.30
2017-12-02T02:51:09.621Z,2.30
2017-12-02T02:53:52.260Z,2.30
2017-12-02T02:56:33.551Z,2.50
2017-12-02T02:59:04.874Z,2.40
2017-12-02T03:01:47.182Z,2.60
2017-12-02T03:04:21.875Z,2.50
2017-12-02T03:06:56.303Z,2.60
2017-12-02T03:09:27.763Z,2.60
2017-12-02T03:12:03.738Z,2.60
2017-12-02T03:14:35.988Z,2.60
2017-12-02T03:17:27.322Z,2.50
2017-12-02T03:19:58.172Z,2.40
2017-12-02T03:25:24.544Z,2.40
2017-12-02T03:28:02.433Z,2.20
2017-12-02T03:30:34.923Z,2.30
2017-12-02T03:33:18.743Z,2.40
2017-12-02T03:36:05.566Z,2.40
2017-12-02T03:38:35.511Z,2.50
2017-12-02T03:44:01.335Z,2.50
2017-12-02T03:46:33.074Z,2.40
2017-12-02T03:49:02.412Z,2.30
2017-12-02T03:51:32.463Z,2.20
2017-12-02T03:56:56.206Z,2.10
2017-12-02T03:59:30.124Z,2.20
2017-12-02T04:01:59.961Z,2.30
2017-12-02T04:04:31.987Z,2.40
2017-12-02T04:07:04.478Z,2.50
2017-12-02T04:09:38.457Z,2.50
2017-12-02T04:15:38.006Z,2.50
2017-12-02T04:18:10.004Z,2.50
2017-12-02T04:20:44.033Z,2.50
2017-12-02T04:23:16.092Z,2.60
2017-12-02T04:25:48.554Z,2.50
2017-12-02T04:28:21.923Z,2.40
2017-12-02T04:30:53.415Z,2.30
2017-12-02T04:33:25.481Z,2.20
2017-12-02T04:35:58.230Z,2.20
2017-12-02T04:38:35.798Z,2.20
2017-12-02T04:41:08.124Z,2.20
2017-12-02T04:43:49.380Z,2.20
2017-12-02T04:46:22.541Z,2.20
2017-12-02T04:48:53.777Z,2.20
2017-12-02T04:51:27.819Z,2.20
2017-12-02T04:54:09.448Z,2.20
2017-12-02T04:56:40.083Z,2.30
2017-12-02T04:59:10.382Z,2.30
2017-12-02T05:01:44.021Z,2.30
2017-12-02T05:04:25.902Z,2.40
2017-12-02T05:06:58.734Z,2.40
2017-12-02T05:09:31.634Z,2.40
2017-12-02T05:12:06.604Z,2.40
2017-12-02T05:14:37.926Z,2.40
2017-12-02T05:17:10.374Z,2.30
2017-12-02T05:19:44.184Z,2.30
2017-12-02T05:22:28.655Z,2.30
2017-12-02T05:25:10.206Z,2.30
2017-12-02T05:27:43.320Z,2.40
2017-12-02T05:30:20.553Z,2.40
2017-12-02T05:32:54.237Z,2.30
2017-12-02T05:35:26.046Z,2.30
2017-12-02T05:37:58.081Z,2.30
2017-12-02T05:40:38.425Z,2.30
2017-12-02T05:43:07.871Z,2.30
2017-12-02T05:45:42.234Z,2.20
2017-12-02T05:48:25.171Z,2.20
2017-12-02T05:51:14.338Z,2.30
2017-12-02T05:54:11.201Z,2.40
2017-12-02T05:56:58.749Z,2.40
2017-12-02T05:59:33.746Z,2.30
2017-12-02T06:02:03.584Z,2.30
2017-12-02T06:04:39.433Z,2.20
2017-12-02T06:07:13.086Z,2.40
2017-12-02T06:12:52.512Z,2.50
2017-12-02T06:15:24.418Z,2.40
2017-12-02T06:17:55.694Z,2.40
2017-12-02T06:20:25.872Z,2.50
2017-12-02T06:22:58.751Z,2.50
2017-12-02T06:25:30.335Z,2.50
2017-12-02T06:28:00.200Z,2.60
2017-12-02T06:30:31.623Z,2.50
2017-12-02T06:33:06.321Z,2.50
2017-12-02T06:35:39.492Z,2.50
2017-12-02T06:38:31.374Z,2.50
2017-12-02T06:41:02.586Z,2.50
2017-12-02T06:43:32.335Z,2.60
2017-12-02T06:49:04.347Z,2.60
2017-12-02T06:51:37.562Z,2.60
2017-12-02T06:55:19.619Z,2.60
2017-12-02T06:57:55.244Z,2.60
2017-12-02T07:03:05.521Z,2.30
2017-12-02T07:05:42.388Z,2.30
2017-12-02T07:08:13.656Z,2.30
2017-12-02T07:10:46.099Z,2.40
2017-12-02T07:13:17.814Z,2.30
2017-12-02T07:16:02.426Z,2.20
2017-12-02T07:18:36.336Z,2.10
2017-12-02T07:21:22.782Z,2.10
2017-12-02T07:23:58.291Z,2.20
2017-12-02T07:26:28.262Z,2.10
2017-12-02T07:29:01.484Z,2.10
2017-12-02T07:31:32.613Z,2.00
2017-12-02T07:37:08.515Z,1.90
2017-12-02T07:39:48.781Z,2.00
2017-12-02T07:42:17.975Z,2.00
2017-12-02T07:47:38.552Z,1.90
2017-12-02T07:50:09.989Z,1.90
2017-12-02T07:52:44.277Z,1.90
2017-12-02T07:55:19.075Z,1.80
2017-12-02T07:57:52.873Z,1.80
2017-12-02T08:00:24.842Z,1.70
2017-12-02T08:02:54.313Z,1.70
2017-12-02T08:05:30.219Z,1.70
2017-12-02T08:08:03.614Z,1.70
2017-12-02T08:10:36.170Z,1.60
2017-12-02T08:13:07.084Z,1.60
2017-12-02T08:15:44.742Z,1.60
2017-12-02T08:18:19.291Z,1.60
2017-12-02T08:20:48.248Z,1.60
2017-12-02T08:23:25.111Z,1.60
2017-12-02T08:25:57.308Z,1.70
2017-12-02T08:28:27.819Z,1.70
2017-12-02T08:31:00.650Z,1.70
2017-12-02T08:33:34.836Z,1.80
2017-12-02T08:36:09.829Z,1.80
2017-12-02T08:38:41.897Z,1.90
2017-12-02T08:41:12.921Z,1.90
2017-12-02T08:43:45.662Z,2.00
2017-12-02T08:46:19.415Z,2.00
2017-12-02T08:48:51.193Z,2.00
2017-12-02T08:51:39.518Z,2.10
2017-12-02T08:54:22.951Z,2.10
2017-12-02T08:57:11.555Z,2.10
2017-12-02T08:59:48.106Z,2.20
2017-12-02T09:02:19.732Z,2.30
2017-12-02T09:07:51.916Z,2.30
2017-12-02T09:10:26.190Z,2.40
2017-12-02T09:12:57.701Z,2.40
2017-12-02T09:15:31.989Z,2.50
2017-12-02T09:18:14.438Z,2.60
2017-12-02T09:20:49.766Z,2.70
2017-12-02T09:23:28.111Z,2.70
2017-12-02T09:26:00.331Z,2.70
2017-12-02T09:31:13.788Z,2.60
2017-12-02T09:33:43.604Z,2.60
2017-12-02T09:36:19.060Z,2.50
2017-12-02T09:38:49.913Z,2.60
2017-12-02T09:41:22.980Z,2.60
2017-12-02T09:43:57.618Z,2.60
2017-12-02T09:46:30.951Z,2.50
2017-12-02T09:49:04.709Z,2.50
2017-12-02T09:51:36.097Z,2.50
2017-12-02T09:54:12.787Z,2.50
2017-12-02T09:56:56.968Z,2.50
2017-12-02T09:59:27.228Z,2.60
2017-12-02T10:01:57.060Z,2.60
2017-12-02T10:04:42.379Z,2.70
2017-12-02T10:07:18.014Z,2.70
2017-12-02T10:09:52.825Z,2.80
2017-12-02T10:12:25.320Z,2.80
2017-12-02T10:15:13.312Z,2.70
2017-12-02T10:17:45.650Z,2.70
2017-12-02T10:25:26.140Z,2.80
2017-12-02T10:28:06.408Z,2.90
2017-12-02T10:30:42.794Z,2.90
2017-12-02T10:33:15.196Z,3.00
2017-12-02T10:35:45.973Z,3.20
2017-12-02T10:38:16.637Z,3.40
2017-12-02T10:40:48.956Z,3.50
2017-12-02T10:43:24.210Z,3.50
2017-12-02T10:45:56.773Z,3.40
2017-12-02T10:48:40.727Z,3.40
2017-12-02T10:51:10.863Z,3.40
2017-12-02T10:53:42.511Z,3.50
2017-12-02T10:56:15.787Z,3.50
2017-12-02T10:58:49.679Z,3.50
2017-12-02T11:01:21.567Z,3.50
2017-12-02T11:03:57.574Z,3.60
2017-12-02T11:06:27.415Z,3.70
2017-12-02T11:09:00.315Z,3.70
2017-12-02T11:11:34.943Z,3.70
2017-12-02T11:14:05.534Z,3.70
2017-12-02T11:16:37.208Z,3.70
2017-12-02T11:19:08.387Z,3.70
2017-12-02T11:21:41.503Z,3.70
2017-12-02T11:26:56.007Z,3.70
2017-12-02T11:29:38.770Z,3.60
2017-12-02T11:32:10.575Z,3.60
2017-12-02T11:34:41.862Z,3.60
2017-12-02T11:37:18.129Z,3.60
2017-12-02T11:39:50.024Z,3.60
2017-12-02T11:42:25.892Z,3.50
2017-12-02T11:44:56.747Z,3.50
2017-12-02T11:47:29.042Z,3.60
2017-12-02T11:49:59.902Z,3.60
2017-12-02T11:52:37.466Z,3.70
2017-12-02T11:55:08.501Z,3.80
2017-12-02T11:57:43.609Z,3.70
2017-12-02T12:00:16.549Z,3.80
2017-12-02T12:02:48.873Z,3.80
2017-12-02T12:05:31.272Z,3.90
2017-12-02T12:08:17.804Z,3.90
2017-12-02T12:10:52.856Z,3.80
2017-12-02T12:13:26.359Z,3.80
2017-12-02T12:16:00.165Z,3.80
2017-12-02T12:18:33.061Z,3.70
2017-12-02T12:21:03.497Z,3.70
2017-12-02T12:23:35.703Z,3.60
2017-12-02T12:26:09.710Z,3.40
2017-12-02T12:28:42.860Z,3.40
2017-12-02T12:31:17.088Z,3.30
2017-12-02T12:33:48.986Z,3.30
2017-12-02T12:36:21.797Z,3.40
2017-12-02T12:38:57.746Z,3.40
2017-12-02T12:41:30.060Z,3.30
2017-12-02T12:44:00.851Z,3.20
2017-12-02T12:46:32.523Z,3.20
2017-12-02T12:49:09.409Z,3.20
2017-12-02T12:51:41.433Z,3.10
2017-12-02T12:54:13.680Z,3.00
2017-12-02T12:56:45.000Z,3.20
2017-12-02T12:59:15.171Z,3.10
2017-12-02T13:01:49.120Z,3.30
2017-12-02T13:04:20.512Z,3.40
2017-12-02T13:06:52.652Z,3.30
2017-12-02T13:09:26.100Z,3.20
2017-12-02T13:11:56.394Z,3.20
2017-12-02T13:14:28.149Z,3.30
2017-12-02T13:17:01.557Z,3.20
2017-12-02T13:19:32.012Z,3.20
2017-12-02T13:22:03.880Z,3.20
2017-12-02T13:24:35.896Z,3.30
2017-12-02T13:27:10.155Z,3.20
2017-12-02T13:29:44.340Z,3.30
2017-12-02T13:32:16.387Z,3.30
2017-12-02T13:34:49.985Z,3.30
2017-12-02T13:37:22.085Z,3.40
2017-12-02T13:39:57.636Z,3.40
2017-12-02T13:42:27.852Z,3.50
2017-12-02T13:45:00.711Z,3.40
2017-12-02T13:47:33.032Z,3.40
2017-12-02T13:50:07.473Z,3.30
2017-12-02T13:52:36.344Z,3.30
2017-12-02T13:55:06.220Z,3.30
2017-12-02T13:57:39.452Z,3.10
2017-12-02T14:00:11.631Z,3.10
2017-12-02T14:02:44.196Z,2.90
2017-12-02T14:05:15.388Z,2.90
2017-12-02T14:07:48.447Z,2.80
2017-12-02T14:10:18.227Z,2.70
2017-12-02T14:12:51.515Z,2.80
2017-12-02T14:15:20.498Z,2.70
2017-12-02T14:17:52.972Z,2.70
2017-12-02T14:20:24.043Z,2.60
2017-12-02T14:23:00.412Z,2.60
2017-12-02T14:25:31.787Z,2.80
2017-12-02T14:28:04.694Z,2.80
2017-12-02T14:30:36.181Z,2.80
2017-12-02T14:33:09.769Z,2.70
2017-12-02T14:35:44.608Z,2.70
2017-12-02T14:38:19.247Z,2.60
2017-12-02T14:40:50.386Z,2.70
2017-12-02T14:43:20.722Z,2.80
2017-12-02T14:45:54.730Z,2.70
2017-12-02T14:48:24.718Z,2.60
2017-12-02T14:50:56.084Z,2.50
2017-12-02T14:53:27.910Z,2.50
2017-12-02T14:56:01.093Z,2.70
2017-12-02T14:58:32.797Z,2.60
2017-12-02T15:01:06.462Z,2.60
2017-12-02T15:03:36.656Z,2.60
2017-12-02T15:06:05.075Z,2.60
2017-12-02T15:11:29.605Z,2.80
2017-12-02T15:14:06.266Z,2.90
2017-12-02T15:16:37.548Z,2.80
2017-12-02T15:19:24.595Z,2.70
2017-12-02T15:22:05.071Z,2.60
2017-12-02T15:24:38.014Z,2.60
2017-12-02T15:27:07.213Z,2.70
2017-12-02T15:29:36.944Z,2.70
2017-12-02T15:32:05.617Z,2.70
2017-12-02T15:34:36.329Z,2.70
2017-12-02T15:37:05.492Z,2.70
2017-12-02T15:42:45.206Z,2.80
2017-12-02T15:45:23.086Z,2.80
2017-12-02T15:47:54.307Z,2.80
2017-12-02T15:50:26.672Z,2.80
2017-12-02T15:52:56.948Z,2.90
2017-12-02T15:55:28.949Z,2.80
2017-12-02T15:58:04.886Z,2.80
2017-12-02T16:00:47.243Z,2.90
2017-12-02T16:03:17.234Z,2.80
2017-12-02T16:05:45.732Z,2.80
2017-12-02T16:08:14.096Z,2.90
2017-12-02T16:10:49.011Z,2.80
2017-12-02T16:16:12.648Z,2.80
2017-12-02T16:18:57.454Z,2.80
2017-12-02T16:21:29.292Z,2.80
2017-12-02T16:24:00.545Z,2.90
2017-12-02T16:26:41.677Z,2.90
2017-12-02T16:29:17.101Z,2.80
2017-12-02T16:31:51.842Z,2.80
2017-12-02T16:34:22.365Z,2.80
2017-12-02T16:36:50.843Z,2.80
2017-12-02T16:39:19.295Z,2.70
2017-12-02T16:41:47.885Z,2.80
2017-12-02T16:44:17.138Z,2.80
2017-12-02T16:46:46.595Z,2.80
2017-12-02T16:49:20.591Z,2.70
2017-12-02T16:51:49.693Z,2.70
2017-12-02T16:54:19.096Z,2.60
2017-12-02T16:56:49.432Z,2.60
2017-12-02T16:59:19.112Z,2.60
2017-12-02T17:01:49.031Z,2.60
2017-12-02T17:04:20.291Z,2.60
2017-12-02T17:06:49.489Z,2.70
2017-12-02T17:09:18.045Z,2.70
2017-12-02T17:11:47.878Z,2.70
2017-12-02T17:16:53.151Z,2.70
2017-12-02T17:19:40.591Z,2.60
2017-12-02T17:22:10.105Z,2.50
2017-12-02T17:24:49.993Z,2.50
2017-12-02T17:30:16.659Z,2.50
2017-12-02T17:35:23.400Z,2.50
2017-12-02T17:37:53.358Z,2.50
2017-12-02T17:40:23.209Z,2.50
2017-12-02T17:42:56.524Z,2.50
2017-12-02T17:45:39.290Z,2.50
2017-12-02T17:48:07.892Z,2.50
2017-12-02T17:50:39.301Z,2.50
2017-12-02T17:53:14.048Z,2.50
2017-12-02T17:55:43.369Z,2.40
2017-12-02T17:58:14.917Z,2.40
2017-12-02T18:00:46.125Z,2.40
2017-12-02T18:03:17.915Z,2.40
2017-12-02T18:05:46.612Z,2.40
2017-12-02T18:08:17.170Z,2.20
2017-12-02T18:10:53.755Z,2.10
2017-12-02T18:13:23.031Z,2.00
2017-12-02T18:15:51.511Z,2.00
2017-12-02T18:18:23.778Z,2.00
2017-12-02T18:20:53.409Z,2.10
2017-12-02T18:23:23.065Z,2.10
2017-12-02T18:25:51.870Z,2.10
2017-12-02T18:28:22.412Z,2.10
2017-12-02T18:31:02.394Z,2.10
2017-12-02T18:33:32.697Z,2.00
2017-12-02T18:36:04.849Z,1.90
2017-12-02T18:38:34.702Z,1.90
2017-12-02T18:41:04.824Z,1.80
2017-12-02T18:43:35.609Z,1.80
2017-12-02T18:48:40.711Z,1.70
2017-12-02T18:51:09.105Z,1.70
2017-12-02T18:53:38.310Z,1.60
2017-12-02T18:56:06.761Z,1.60
2017-12-02T18:58:35.114Z,1.60
2017-12-02T19:01:04.498Z,1.60
2017-12-02T19:03:32.925Z,1.50
2017-12-02T19:06:02.647Z,1.50
2017-12-02T19:08:55.452Z,1.40
2017-12-02T19:11:23.939Z,1.40
2017-12-02T19:13:52.320Z,1.30
2017-12-02T19:16:25.595Z,1.20
2017-12-02T19:18:55.650Z,1.10
2017-12-02T19:21:39.291Z,1.10
2017-12-02T19:24:15.168Z,1.10
2017-12-02T19:26:45.511Z,1.10
2017-12-02T19:29:17.683Z,1.10
2017-12-02T19:31:47.086Z,1.10
2017-12-02T19:34:15.414Z,1.00
2017-12-02T19:36:45.180Z,1.10
2017-12-02T19:39:13.503Z,1.10
2017-12-02T19:41:41.820Z,1.00
2017-12-02T19:44:10.958Z,0.90
2017-12-02T19:46:40.244Z,0.90
2017-12-02T19:49:10.120Z,0.90
2017-12-02T19:51:39.537Z,0.90
2017-12-02T19:54:09.495Z,0.90
2017-12-02T19:56:39.700Z,0.80
2017-12-02T19:59:08.256Z,0.80
2017-12-02T20:01:36.726Z,0.80
2017-12-02T20:04:05.542Z,0.80
2017-12-02T20:06:34.371Z,0.80
2017-12-02T20:09:03.938Z,0.80
2017-12-02T20:11:33.097Z,0.80
2017-12-02T20:14:01.540Z,0.80
2017-12-02T20:16:29.978Z,0.80
2017-12-02T20:18:58.281Z,0.70
2017-12-02T20:21:27.507Z,0.60
2017-12-02T20:23:56.587Z,0.50
2017-12-02T20:26:25.003Z,0.40
2017-12-02T20:28:56.513Z,0.30
2017-12-02T20:31:27.715Z,0.30
2017-12-02T20:33:59.587Z,0.20
2017-12-02T20:36:29.492Z,0.20
2017-12-02T20:38:58.085Z,0.20
2017-12-02T20:41:26.704Z,0.20
2017-12-02T20:43:55.170Z,0.10
2017-12-02T20:46:24.431Z,0.00
2017-12-02T20:48:52.830Z,0.00
2017-12-02T20:51:23.106Z,-0.10
2017-12-02T20:53:52.286Z,0.00
2017-12-02T20:56:20.736Z,0.00
2017-12-02T20:58:49.150Z,0.00
2017-12-02T21:01:18.906Z,0.00
2017-12-02T21:03:48.735Z,0.00
2017-12-02T21:06:17.282Z,0.00
2017-12-02T21:08:45.786Z,-0.10
2017-12-02T21:11:14.995Z,-0.20
2017-12-02T21:13:43.532Z,-0.20
2017-12-02T21:16:12.080Z,-0.10
2017-12-02T21:18:40.796Z,-0.10
2017-12-02T21:21:09.792Z,-0.10
2017-12-02T21:23:39.006Z,0.00
2017-12-02T21:26:09.136Z,0.00
2017-12-02T21:28:37.474Z,0.00
2017-12-02T21:31:06.795Z,0.00
2017-12-02T21:33:50.384Z,0.00
2017-12-02T21:36:21.847Z,0.10
2017-12-02T21:38:50.711Z,0.00
2017-12-02T21:41:20.535Z,0.10
2017-12-02T21:43:52.097Z,0.20
2017-12-02T21:46:20.556Z,0.30
2017-12-02T21:48:49.216Z,0.20
2017-12-02T21:51:20.388Z,0.20
2017-12-02T21:53:49.760Z,0.40
2017-12-02T21:56:18.186Z,0.30
2017-12-02T21:58:47.825Z,0.40
2017-12-02T22:01:18.392Z,0.40
2017-12-02T22:03:59.924Z,0.30
2017-12-02T22:06:28.430Z,0.30
2017-12-02T22:08:57.133Z,0.40
2017-12-02T22:11:25.723Z,0.50
2017-12-02T22:13:54.206Z,0.60
2017-12-02T22:16:23.713Z,0.50
2017-12-02T22:18:52.294Z,0.50
2017-12-02T22:21:20.606Z,0.40
2017-12-02T22:23:48.948Z,0.40
2017-12-02T22:26:17.314Z,0.40
2017-12-02T22:28:46.220Z,0.50
2017-12-02T22:31:15.483Z,0.70
2017-12-02T22:33:44.177Z,0.60
2017-12-02T22:36:15.204Z,0.80
2017-12-02T22:38:46.256Z,0.80
2017-12-02T22:41:19.200Z,0.80
2017-12-02T22:43:50.385Z,0.70
2017-12-02T22:46:19.726Z,0.80
2017-12-02T22:48:48.304Z,0.80
2017-12-02T22:51:16.741Z,0.70
2017-12-02T22:53:45.033Z,0.70
2017-12-02T22:56:17.572Z,0.70
2017-12-02T22:58:46.682Z,0.70
2017-12-02T23:01:17.857Z,0.80
2017-12-02T23:03:52.816Z,0.90
2017-12-02T23:06:21.590Z,0.80
2017-12-02T23:08:50.873Z,0.90
2017-12-02T23:11:19.391Z,0.90
2017-12-02T23:13:47.754Z,1.00
2017-12-02T23:16:16.203Z,1.00
2017-12-02T23:18:58.683Z,1.00
2017-12-02T23:21:29.199Z,1.00
2017-12-02T23:24:05.933Z,1.10
2017-12-02T23:26:34.391Z,1.10
2017-12-02T23:29:02.845Z,1.20
2017-12-02T23:31:31.538Z,1.20
2017-12-02T23:34:00.062Z,1.30
2017-12-02T23:36:29.429Z,1.20
2017-12-02T23:39:00.668Z,1.20
2017-12-02T23:41:29.864Z,1.20
2017-12-02T23:43:59.318Z,1.20
2017-12-02T23:46:31.126Z,1.30
2017-12-02T23:49:01.336Z,1.30
2017-12-02T23:51:32.372Z,1.20
2017-12-02T23:54:00.798Z,1.20
2017-12-02T23:56:29.290Z,1.20
2017-12-02T23:59:12.696Z,1.20
